sensor_id;sensor_type;location;lat;lon;timestamp;pressure;altitude;pressure_sealevel;temperature;humidity
16431;BME280;8325;49.284;7.238;2023-05-02T04:04:17;99127.38;;;7.38;100.00
16431;BME280;8325;49.284;7.238;2023-05-02T04:08:33;99122.88;;;7.41;100.00
16431;BME280;8325;49.284;7.238;2023-05-02T04:12:45;99122.19;;;7.48;100.00
16431;BME280;8325;49.284;7.238;2023-05-02T04:16:58;99116.88;;;7.40;100.00
16431;BME280;8325;49.284;7.238;2023-05-02T04:21:21;99132.59;;;7.29;100.00
16431;BME280;8325;49.284;7.238;2023-05-02T04:25:33;99132.59;;;7.29;100.00
16431;BME280;8325;49.284;7.238;2023-05-02T04:29:48;99137.81;;;7.29;100.00
16431;BME280;8325;49.284;7.238;2023-05-02T04:34:01;99138.78;;;7.28;100.00
16431;BME280;8325;49.284;7.238;2023-05-02T04:38:19;99144.66;;;7.30;100.00
16431;BME280;8325;49.284;7.238;2023-05-02T04:42:33;99141.63;;;7.34;100.00
16431;BME280;8325;49.284;7.238;2023-05-02T04:46:55;99162.97;;;7.38;100.00
16431;BME280;8325;49.284;7.238;2023-05-02T04:51:10;99165.44;;;7.40;100.00
16431;BME280;8325;49.284;7.238;2023-05-02T04:55:21;99165.69;;;7.46;100.00
16431;BME280;8325;49.284;7.238;2023-05-02T04:59:34;99170.34;;;7.52;100.00
16431;BME280;8325;49.284;7.238;2023-05-02T05:03:46;99171.13;;;7.63;100.00
16431;BME280;8325;49.284;7.238;2023-05-02T05:08:00;99170.16;;;7.73;100.00
16431;BME280;8325;49.284;7.238;2023-05-02T05:12:15;99184.53;;;7.77;100.00
16431;BME280;8325;49.284;7.238;2023-05-02T05:16:27;99191.47;;;7.87;100.00
16431;BME280;8325;49.284;7.238;2023-05-02T05:20:40;99188.97;;;8.04;100.00
16431;BME280;8325;49.284;7.238;2023-05-02T05:24:55;99200.44;;;8.12;100.00
16431;BME280;8325;49.284;7.238;2023-05-02T05:29:11;99200.28;;;8.23;100.00
16431;BME280;8325;49.284;7.238;2023-05-02T05:33:25;99202.16;;;8.30;100.00
16431;BME280;8325;49.284;7.238;2023-05-02T05:37:37;99205.13;;;8.45;100.00
16431;BME280;8325;49.284;7.238;2023-05-02T05:41:54;99214.97;;;8.51;100.00
16431;BME280;8325;49.284;7.238;2023-05-02T05:46:07;99221.53;;;8.56;100.00
16431;BME280;8325;49.284;7.238;2023-05-02T05:50:20;99229.66;;;8.70;100.00
16431;BME280;8325;49.284;7.238;2023-05-02T05:54:32;99234.53;;;8.83;99.79
16431;BME280;8325;49.284;7.238;2023-05-02T05:58:44;99230.72;;;9.41;96.80
16431;BME280;8325;49.284;7.238;2023-05-02T06:02:58;99228.06;;;12.67;81.58
16431;BME280;8325;49.284;7.238;2023-05-02T06:07:16;99225.00;;;16.05;68.41
16431;BME280;8325;49.284;7.238;2023-05-02T06:11:28;99220.44;;;18.36;60.14
16431;BME280;8325;49.284;7.238;2023-05-02T06:15:40;99226.59;;;19.20;56.18
16431;BME280;8325;49.284;7.238;2023-05-02T06:19:52;99230.66;;;20.66;52.03
16431;BME280;8325;49.284;7.238;2023-05-02T06:24:05;99230.50;;;21.21;50.19
16431;BME280;8325;49.284;7.238;2023-05-02T06:28:17;99236.69;;;21.99;47.57
16431;BME280;8325;49.284;7.238;2023-05-02T06:32:31;99240.72;;;22.25;47.09
16431;BME280;8325;49.284;7.238;2023-05-02T06:36:43;99247.06;;;22.00;47.96
16431;BME280;8325;49.284;7.238;2023-05-02T06:40:54;99254.38;;;21.40;48.74
16431;BME280;8325;49.284;7.238;2023-05-02T06:45:06;99259.09;;;20.59;51.35
16431;BME280;8325;49.284;7.238;2023-05-02T06:49:18;99259.41;;;19.50;53.93
16431;BME280;8325;49.284;7.238;2023-05-02T06:53:30;99259.72;;;18.97;56.79
16431;BME280;8325;49.284;7.238;2023-05-02T06:57:43;99275.97;;;18.36;58.86
16431;BME280;8325;49.284;7.238;2023-05-02T07:01:55;99277.56;;;17.37;60.62
16431;BME280;8325;49.284;7.238;2023-05-02T07:06:06;99278.44;;;16.55;64.75
16431;BME280;8325;49.284;7.238;2023-05-02T07:10:18;99281.88;;;15.71;65.73
16431;BME280;8325;49.284;7.238;2023-05-02T07:14:29;99290.50;;;15.43;68.23
16431;BME280;8325;49.284;7.238;2023-05-02T07:18:41;99297.28;;;15.96;66.02
16431;BME280;8325;49.284;7.238;2023-05-02T07:22:53;99299.06;;;14.94;70.13
16431;BME280;8325;49.284;7.238;2023-05-02T07:27:05;99301.53;;;14.81;71.42
16431;BME280;8325;49.284;7.238;2023-05-02T07:31:16;99316.22;;;14.76;70.00
16431;BME280;8325;49.284;7.238;2023-05-02T07:35:29;99297.75;;;15.20;69.38
16431;BME280;8325;49.284;7.238;2023-05-02T07:39:41;99311.59;;;14.78;70.19
16431;BME280;8325;49.284;7.238;2023-05-02T07:43:52;99307.16;;;14.78;71.12
16431;BME280;8325;49.284;7.238;2023-05-02T07:48:04;99310.19;;;14.37;72.69
16431;BME280;8325;49.284;7.238;2023-05-02T07:52:16;99310.81;;;14.39;73.05
16431;BME280;8325;49.284;7.238;2023-05-02T07:56:28;99299.88;;;14.80;70.71
16431;BME280;8325;49.284;7.238;2023-05-02T08:00:40;99298.75;;;15.19;70.50
16431;BME280;8325;49.284;7.238;2023-05-02T08:04:51;99303.94;;;15.49;69.05
16431;BME280;8325;49.284;7.238;2023-05-02T08:09:04;99303.19;;;15.55;68.74
16431;BME280;8325;49.284;7.238;2023-05-02T08:13:16;99317.69;;;15.29;69.01
16431;BME280;8325;49.284;7.238;2023-05-02T08:17:28;99323.47;;;15.03;68.63
16431;BME280;8325;49.284;7.238;2023-05-02T08:21:39;99322.53;;;15.11;70.02
16431;BME280;8325;49.284;7.238;2023-05-02T08:25:52;99336.25;;;14.91;71.15
16431;BME280;8325;49.284;7.238;2023-05-02T08:30:04;99342.28;;;14.47;72.53
16431;BME280;8325;49.284;7.238;2023-05-02T08:34:17;99340.41;;;14.56;72.08
16431;BME280;8325;49.284;7.238;2023-05-02T08:38:29;99341.63;;;14.54;71.57
16431;BME280;8325;49.284;7.238;2023-05-02T08:42:41;99347.47;;;14.56;70.50
16431;BME280;8325;49.284;7.238;2023-05-02T08:46:55;99349.81;;;14.50;71.72
16431;BME280;8325;49.284;7.238;2023-05-02T08:51:12;99351.03;;;14.63;72.21
16431;BME280;8325;49.284;7.238;2023-05-02T08:55:24;99357.63;;;14.21;73.18
16431;BME280;8325;49.284;7.238;2023-05-02T08:59:38;99353.97;;;14.45;72.36
16431;BME280;8325;49.284;7.238;2023-05-02T09:03:49;99366.56;;;14.49;70.06
16431;BME280;8325;49.284;7.238;2023-05-02T09:08:02;99368.94;;;14.44;69.90
16431;BME280;8325;49.284;7.238;2023-05-02T09:12:14;99365.28;;;14.54;70.44
16431;BME280;8325;49.284;7.238;2023-05-02T09:16:26;99377.63;;;14.07;70.86
16431;BME280;8325;49.284;7.238;2023-05-02T09:20:39;99367.34;;;13.97;71.24
16431;BME280;8325;49.284;7.238;2023-05-02T09:24:54;99373.28;;;13.91;73.10
16431;BME280;8325;49.284;7.238;2023-05-02T09:29:06;99377.50;;;14.00;72.10
16431;BME280;8325;49.284;7.238;2023-05-02T09:33:25;99382.88;;;13.84;72.26
16431;BME280;8325;49.284;7.238;2023-05-02T09:37:37;99386.16;;;13.86;73.33
16431;BME280;8325;49.284;7.238;2023-05-02T09:41:49;99389.75;;;13.85;72.76
16431;BME280;8325;49.284;7.238;2023-05-02T09:46:03;99394.97;;;13.93;72.93
16431;BME280;8325;49.284;7.238;2023-05-02T09:50:32;99395.19;;;14.07;74.70
16431;BME280;8325;49.284;7.238;2023-05-02T09:54:45;99405.47;;;13.93;73.76
16431;BME280;8325;49.284;7.238;2023-05-02T09:59:14;99411.59;;;13.86;74.43
16431;BME280;8325;49.284;7.238;2023-05-02T10:03:27;99408.31;;;13.84;73.97
16431;BME280;8325;49.284;7.238;2023-05-02T10:07:39;99416.38;;;14.05;75.27
16431;BME280;8325;49.284;7.238;2023-05-02T10:11:54;99414.75;;;14.04;72.97
16431;BME280;8325;49.284;7.238;2023-05-02T10:16:11;99419.75;;;13.91;72.12
16431;BME280;8325;49.284;7.238;2023-05-02T10:20:34;99421.34;;;14.00;72.67
16431;BME280;8325;49.284;7.238;2023-05-02T10:24:51;99418.94;;;13.90;71.01
16431;BME280;8325;49.284;7.238;2023-05-02T10:29:03;99426.47;;;13.93;70.80
16431;BME280;8325;49.284;7.238;2023-05-02T10:33:16;99424.31;;;13.97;69.86
16431;BME280;8325;49.284;7.238;2023-05-02T10:37:30;99425.81;;;13.91;70.80
16431;BME280;8325;49.284;7.238;2023-05-02T10:41:44;99416.19;;;14.07;69.44
16431;BME280;8325;49.284;7.238;2023-05-02T10:45:56;99412.75;;;14.06;69.25
16431;BME280;8325;49.284;7.238;2023-05-02T10:50:08;99403.13;;;14.21;68.46
16431;BME280;8325;49.284;7.238;2023-05-02T10:54:21;99395.50;;;14.87;68.25
16431;BME280;8325;49.284;7.238;2023-05-02T10:58:33;99403.56;;;15.01;65.66
16431;BME280;8325;49.284;7.238;2023-05-02T11:11:43;99398.00;;;15.25;65.42
16431;BME280;8325;49.284;7.238;2023-05-02T11:15:55;99395.06;;;15.50;62.59
16431;BME280;8325;49.284;7.238;2023-05-02T11:24:38;99381.59;;;15.74;62.09
16431;BME280;8325;49.284;7.238;2023-05-02T11:28:50;99382.78;;;15.72;61.73
16431;BME280;8325;49.284;7.238;2023-05-02T11:37:16;99387.22;;;15.71;61.10
16431;BME280;8325;49.284;7.238;2023-05-02T11:41:41;99373.91;;;16.22;60.75
16431;BME280;8325;49.284;7.238;2023-05-02T11:45:53;99376.47;;;16.65;56.93
16431;BME280;8325;49.284;7.238;2023-05-02T11:50:06;99367.16;;;16.97;56.07
16431;BME280;8325;49.284;7.238;2023-05-02T11:54:18;99365.66;;;17.30;53.71
16431;BME280;8325;49.284;7.238;2023-05-02T11:58:31;99360.41;;;17.36;53.62
16431;BME280;8325;49.284;7.238;2023-05-02T12:02:45;99356.19;;;17.48;52.43
16431;BME280;8325;49.284;7.238;2023-05-02T12:06:58;99357.44;;;17.59;51.92
16431;BME280;8325;49.284;7.238;2023-05-02T12:11:12;99354.34;;;17.42;50.35
16431;BME280;8325;49.284;7.238;2023-05-02T12:15:25;99357.75;;;16.82;50.65
16431;BME280;8325;49.284;7.238;2023-05-02T12:19:37;99353.06;;;17.18;51.05
16431;BME280;8325;49.284;7.238;2023-05-02T12:23:48;99357.84;;;17.56;50.47
16431;BME280;8325;49.284;7.238;2023-05-02T12:28:01;99351.59;;;17.70;49.46
16431;BME280;8325;49.284;7.238;2023-05-02T12:32:14;99361.19;;;17.23;48.32
16431;BME280;8325;49.284;7.238;2023-05-02T12:36:27;99349.09;;;17.49;49.72
16431;BME280;8325;49.284;7.238;2023-05-02T12:40:45;99357.34;;;18.07;46.54
16431;BME280;8325;49.284;7.238;2023-05-02T12:44:58;99363.44;;;18.28;46.95
16431;BME280;8325;49.284;7.238;2023-05-02T12:49:09;99352.88;;;18.08;46.81
16431;BME280;8325;49.284;7.238;2023-05-02T12:53:42;99363.22;;;17.83;46.82
16431;BME280;8325;49.284;7.238;2023-05-02T12:58:05;99367.38;;;17.51;47.82
16431;BME280;8325;49.284;7.238;2023-05-02T13:02:17;99363.03;;;17.36;47.89
16431;BME280;8325;49.284;7.238;2023-05-02T13:06:28;99372.88;;;17.08;51.21
16431;BME280;8325;49.284;7.238;2023-05-02T13:10:41;99387.22;;;16.36;54.71
16431;BME280;8325;49.284;7.238;2023-05-02T13:14:52;99382.16;;;16.13;58.13
16431;BME280;8325;49.284;7.238;2023-05-02T13:19:04;99394.81;;;15.81;59.44
16431;BME280;8325;49.284;7.238;2023-05-02T13:23:16;99386.81;;;15.89;62.25
16431;BME280;8325;49.284;7.238;2023-05-02T13:27:27;99384.84;;;15.76;60.99
16431;BME280;8325;49.284;7.238;2023-05-02T13:31:39;99389.56;;;16.02;58.05
16431;BME280;8325;49.284;7.238;2023-05-02T13:35:50;99382.72;;;16.08;55.44
16431;BME280;8325;49.284;7.238;2023-05-02T13:40:02;99381.06;;;16.28;55.43
16431;BME280;8325;49.284;7.238;2023-05-02T13:44:15;99389.81;;;16.07;54.61
16431;BME280;8325;49.284;7.238;2023-05-02T13:48:27;99384.72;;;16.27;53.59
16431;BME280;8325;49.284;7.238;2023-05-02T13:52:38;99386.06;;;16.17;50.75
16431;BME280;8325;49.284;7.238;2023-05-02T13:56:50;99388.00;;;16.08;50.04
16431;BME280;8325;49.284;7.238;2023-05-02T14:01:01;99379.50;;;16.62;47.45
16431;BME280;8325;49.284;7.238;2023-05-02T14:05:13;99376.03;;;16.90;46.20
16431;BME280;8325;49.284;7.238;2023-05-02T14:09:25;99373.41;;;17.31;46.67
16431;BME280;8325;49.284;7.238;2023-05-02T14:13:37;99367.88;;;17.81;46.54
16431;BME280;8325;49.284;7.238;2023-05-02T14:17:48;99364.25;;;18.08;45.85
16431;BME280;8325;49.284;7.238;2023-05-02T14:22:00;99365.06;;;18.22;44.79
16431;BME280;8325;49.284;7.238;2023-05-02T14:26:12;99370.75;;;17.86;44.87
16431;BME280;8325;49.284;7.238;2023-05-02T14:30:24;99364.09;;;17.42;45.38
16431;BME280;8325;49.284;7.238;2023-05-02T14:34:35;99366.94;;;17.40;46.30
16431;BME280;8325;49.284;7.238;2023-05-02T14:38:47;99371.69;;;17.10;46.55
16431;BME280;8325;49.284;7.238;2023-05-02T14:42:58;99365.22;;;17.19;46.65
16431;BME280;8325;49.284;7.238;2023-05-02T14:47:10;99357.84;;;17.56;47.39
16431;BME280;8325;49.284;7.238;2023-05-02T14:51:22;99363.75;;;17.58;47.69
16431;BME280;8325;49.284;7.238;2023-05-02T14:55:38;99365.75;;;17.43;47.27
16431;BME280;8325;49.284;7.238;2023-05-02T14:59:49;99367.34;;;17.37;48.02
16431;BME280;8325;49.284;7.238;2023-05-02T15:04:01;99374.16;;;17.18;48.17
16431;BME280;8325;49.284;7.238;2023-05-02T15:08:18;99370.50;;;17.13;48.87
16431;BME280;8325;49.284;7.238;2023-05-02T15:12:30;99371.25;;;17.00;49.23
16431;BME280;8325;49.284;7.238;2023-05-02T15:16:41;99374.28;;;16.97;49.22
16431;BME280;8325;49.284;7.238;2023-05-02T15:20:53;99380.97;;;16.71;50.63
16431;BME280;8325;49.284;7.238;2023-05-02T15:25:05;99381.53;;;16.60;51.74
16431;BME280;8325;49.284;7.238;2023-05-02T15:29:16;99377.34;;;16.44;51.99
16431;BME280;8325;49.284;7.238;2023-05-02T15:33:28;99370.28;;;16.23;52.81
16431;BME280;8325;49.284;7.238;2023-05-02T15:37:39;99371.88;;;16.18;52.44
16431;BME280;8325;49.284;7.238;2023-05-02T15:41:51;99372.69;;;16.18;51.93
16431;BME280;8325;49.284;7.238;2023-05-02T15:46:03;99367.47;;;16.25;51.66
16431;BME280;8325;49.284;7.238;2023-05-02T15:50:15;99365.50;;;16.33;52.88
16431;BME280;8325;49.284;7.238;2023-05-02T15:54:27;99360.66;;;16.37;52.38
16431;BME280;8325;49.284;7.238;2023-05-02T15:58:39;99359.06;;;16.43;51.11
16431;BME280;8325;49.284;7.238;2023-05-02T16:02:50;99364.16;;;16.72;50.80
16431;BME280;8325;49.284;7.238;2023-05-02T16:07:02;99370.94;;;17.30;49.93
16431;BME280;8325;49.284;7.238;2023-05-02T16:11:14;99367.75;;;17.41;48.25
16431;BME280;8325;49.284;7.238;2023-05-02T16:15:25;99356.47;;;17.74;49.09
16431;BME280;8325;49.284;7.238;2023-05-02T16:19:37;99350.22;;;18.01;48.32
16431;BME280;8325;49.284;7.238;2023-05-02T16:23:48;99352.66;;;17.96;48.65
16431;BME280;8325;49.284;7.238;2023-05-02T16:28:00;99352.06;;;18.07;48.93
16431;BME280;8325;49.284;7.238;2023-05-02T16:32:12;99349.81;;;18.04;49.02
16431;BME280;8325;49.284;7.238;2023-05-02T16:36:23;99350.59;;;17.91;49.24
16431;BME280;8325;49.284;7.238;2023-05-02T16:40:35;99347.19;;;18.04;48.83
16431;BME280;8325;49.284;7.238;2023-05-02T16:44:47;99354.69;;;18.21;49.26
16431;BME280;8325;49.284;7.238;2023-05-02T16:48:58;99367.91;;;18.27;48.56
16431;BME280;8325;49.284;7.238;2023-05-02T16:53:10;99358.56;;;18.31;48.38
16431;BME280;8325;49.284;7.238;2023-05-02T16:57:21;99360.22;;;18.26;48.69
16431;BME280;8325;49.284;7.238;2023-05-02T17:01:34;99364.66;;;17.92;48.83
16431;BME280;8325;49.284;7.238;2023-05-02T17:05:45;99371.63;;;17.45;48.79
16431;BME280;8325;49.284;7.238;2023-05-02T17:09:57;99378.59;;;17.11;48.13
16431;BME280;8325;49.284;7.238;2023-05-02T17:14:09;99376.09;;;16.96;49.30
16431;BME280;8325;49.284;7.238;2023-05-02T17:18:20;99378.34;;;16.71;49.49
16431;BME280;8325;49.284;7.238;2023-05-02T17:22:33;99380.44;;;16.48;50.16
16431;BME280;8325;49.284;7.238;2023-05-02T17:26:46;99387.03;;;16.37;50.26
16431;BME280;8325;49.284;7.238;2023-05-02T17:30:57;99378.75;;;16.19;50.65
16431;BME280;8325;49.284;7.238;2023-05-02T17:35:09;99386.72;;;16.04;51.94
16431;BME280;8325;49.284;7.238;2023-05-02T17:39:22;99384.25;;;15.96;52.50
16431;BME280;8325;49.284;7.238;2023-05-02T17:43:33;99390.25;;;15.90;52.70
16431;BME280;8325;49.284;7.238;2023-05-02T17:47:45;99395.38;;;15.76;53.26
16431;BME280;8325;49.284;7.238;2023-05-02T17:51:57;99408.53;;;15.76;54.19
16431;BME280;8325;49.284;7.238;2023-05-02T17:56:08;99411.50;;;15.52;56.32
16431;BME280;8325;49.284;7.238;2023-05-02T18:00:21;99419.50;;;15.43;56.72
16431;BME280;8325;49.284;7.238;2023-05-02T18:04:32;99421.50;;;15.41;57.74
16431;BME280;8325;49.284;7.238;2023-05-02T18:08:44;99420.31;;;15.29;58.30
16431;BME280;8325;49.284;7.238;2023-05-02T18:12:56;99423.81;;;15.15;58.68
16431;BME280;8325;49.284;7.238;2023-05-02T18:17:07;99425.78;;;15.13;59.51
16431;BME280;8325;49.284;7.238;2023-05-02T18:21:21;99437.75;;;15.01;59.93
16431;BME280;8325;49.284;7.238;2023-05-02T18:25:33;99440.31;;;14.94;60.99
16431;BME280;8325;49.284;7.238;2023-05-02T18:29:45;99447.81;;;14.82;62.20
16431;BME280;8325;49.284;7.238;2023-05-02T18:33:57;99446.91;;;14.75;62.61
16431;BME280;8325;49.284;7.238;2023-05-02T18:38:08;99465.38;;;14.67;62.78
16431;BME280;8325;49.284;7.238;2023-05-02T18:42:20;99465.66;;;14.49;63.47
16431;BME280;8325;49.284;7.238;2023-05-02T18:46:31;99473.22;;;14.44;63.66
16431;BME280;8325;49.284;7.238;2023-05-02T18:50:43;99478.63;;;14.27;64.08
16431;BME280;8325;49.284;7.238;2023-05-02T18:54:54;99488.56;;;14.17;65.39
16431;BME280;8325;49.284;7.238;2023-05-02T18:59:07;99497.97;;;14.03;65.09
16431;BME280;8325;49.284;7.238;2023-05-02T19:03:18;99499.31;;;13.68;65.72
16431;BME280;8325;49.284;7.238;2023-05-02T19:07:30;99508.88;;;13.61;65.31
16431;BME280;8325;49.284;7.238;2023-05-02T19:11:42;99509.72;;;13.45;65.26
16431;BME280;8325;49.284;7.238;2023-05-02T19:15:54;99527.47;;;13.27;66.14
16431;BME280;8325;49.284;7.238;2023-05-02T19:20:07;99537.00;;;13.28;66.14
16431;BME280;8325;49.284;7.238;2023-05-02T19:24:19;99539.59;;;13.11;66.06
16431;BME280;8325;49.284;7.238;2023-05-02T19:28:31;99549.63;;;12.92;66.75
16431;BME280;8325;49.284;7.238;2023-05-02T19:32:42;99556.03;;;12.89;65.29
16431;BME280;8325;49.284;7.238;2023-05-02T19:36:54;99568.78;;;12.67;65.52
16431;BME280;8325;49.284;7.238;2023-05-02T19:41:09;99566.66;;;12.55;66.18
16431;BME280;8325;49.284;7.238;2023-05-02T19:45:21;99565.00;;;12.46;66.06
16431;BME280;8325;49.284;7.238;2023-05-02T19:49:32;99576.25;;;12.30;66.45
16431;BME280;8325;49.284;7.238;2023-05-02T19:53:44;99582.78;;;12.17;67.09
16431;BME280;8325;49.284;7.238;2023-05-02T19:57:56;99588.47;;;12.05;66.20
16431;BME280;8325;49.284;7.238;2023-05-02T20:02:08;99587.59;;;11.96;67.23
16431;BME280;8325;49.284;7.238;2023-05-02T20:06:20;99592.16;;;11.94;67.25
16431;BME280;8325;49.284;7.238;2023-05-02T20:10:32;99596.53;;;11.85;68.57
16431;BME280;8325;49.284;7.238;2023-05-02T20:14:43;99600.59;;;11.53;70.14
16431;BME280;8325;49.284;7.238;2023-05-02T20:18:56;99604.66;;;11.48;69.68
16431;BME280;8325;49.284;7.238;2023-05-02T20:23:08;99598.19;;;11.34;68.97
16431;BME280;8325;49.284;7.238;2023-05-02T20:27:19;99602.91;;;11.31;69.04
16431;BME280;8325;49.284;7.238;2023-05-02T20:31:31;99612.94;;;11.17;68.87
16431;BME280;8325;49.284;7.238;2023-05-02T20:35:43;99622.84;;;11.05;68.72
16431;BME280;8325;49.284;7.238;2023-05-02T20:39:55;99636.25;;;11.11;68.65
16431;BME280;8325;49.284;7.238;2023-05-02T20:44:07;99641.78;;;11.07;68.69
16431;BME280;8325;49.284;7.238;2023-05-02T20:48:19;99634.63;;;10.92;69.23
16431;BME280;8325;49.284;7.238;2023-05-02T20:52:31;99637.53;;;10.89;69.14
16431;BME280;8325;49.284;7.238;2023-05-02T20:56:43;99638.31;;;10.81;69.29
16431;BME280;8325;49.284;7.238;2023-05-02T21:00:54;99639.31;;;10.70;69.25
16431;BME280;8325;49.284;7.238;2023-05-02T21:05:06;99641.72;;;10.64;68.71
16431;BME280;8325;49.284;7.238;2023-05-02T21:09:18;99643.50;;;10.63;69.17
16431;BME280;8325;49.284;7.238;2023-05-02T21:13:29;99643.28;;;10.56;69.93
16431;BME280;8325;49.284;7.238;2023-05-02T21:17:41;99648.56;;;10.47;69.77
16431;BME280;8325;49.284;7.238;2023-05-02T21:21:52;99653.47;;;10.50;69.86
16431;BME280;8325;49.284;7.238;2023-05-02T21:26:04;99657.41;;;10.36;70.80
